createdAt,value
2023-03-24T00:00:24.477Z,56.70
2023-03-24T00:02:53.558Z,56.50
2023-03-24T00:05:22.842Z,56.53
2023-03-24T00:07:54.976Z,56.52
2023-03-24T00:10:24.492Z,56.54
2023-03-24T00:12:52.641Z,56.38
2023-03-24T00:15:21.792Z,56.32
2023-03-24T00:17:51.066Z,56.12
2023-03-24T00:20:46.728Z,56.22
2023-03-24T00:23:16.157Z,56.33
2023-03-24T00:25:45.206Z,56.53
2023-03-24T00:28:18.145Z,56.46
2023-03-24T00:30:53.197Z,56.43
2023-03-24T00:33:22.003Z,56.37
2023-03-24T00:35:50.269Z,56.27
2023-03-24T00:42:09.503Z,56.10
2023-03-24T00:44:38.286Z,56.00
2023-03-24T00:47:06.461Z,55.91
2023-03-24T00:49:44.865Z,55.85
2023-03-24T00:52:22.548Z,55.74
2023-03-24T00:54:58.418Z,55.75
2023-03-24T00:57:50.705Z,55.64
2023-03-24T01:00:25.036Z,55.49
2023-03-24T01:02:57.402Z,55.64
2023-03-24T01:05:30.253Z,55.68
2023-03-24T01:08:04.014Z,55.58
2023-03-24T01:11:05.857Z,55.61
2023-03-24T01:13:36.802Z,55.71
2023-03-24T01:16:08.003Z,55.66
2023-03-24T01:18:40.862Z,55.59
2023-03-24T01:21:09.737Z,55.78
2023-03-24T01:23:38.173Z,55.78
2023-03-24T01:26:08.367Z,55.88
2023-03-24T01:28:41.040Z,55.97
2023-03-24T01:31:10.060Z,55.90
2023-03-24T01:33:38.659Z,56.05
2023-03-24T01:36:07.796Z,56.06
2023-03-24T01:38:36.524Z,56.23
2023-03-24T01:41:06.007Z,56.43
2023-03-24T01:43:35.959Z,56.34
2023-03-24T01:46:08.822Z,56.38
2023-03-24T01:48:39.442Z,56.50
2023-03-24T01:51:16.706Z,56.42
2023-03-24T01:53:53.515Z,56.42
2023-03-24T01:56:22.002Z,56.60
2023-03-24T01:58:53.938Z,56.52
2023-03-24T02:01:31.157Z,56.56
2023-03-24T02:04:25.931Z,56.63
2023-03-24T02:06:55.528Z,56.82
2023-03-24T02:09:25.464Z,56.72
2023-03-24T02:11:53.795Z,56.85
2023-03-24T02:14:30.340Z,56.93
2023-03-24T02:17:23.463Z,56.81
2023-03-24T02:20:12.515Z,56.98
2023-03-24T02:23:03.579Z,57.19
2023-03-24T02:25:41.842Z,57.35
2023-03-24T02:28:15.601Z,57.39
2023-03-24T02:31:13.103Z,57.31
2023-03-24T02:34:07.650Z,57.40
2023-03-24T02:37:18.893Z,57.65
2023-03-24T02:40:22.726Z,57.47
2023-03-24T02:42:56.172Z,57.63
2023-03-24T02:45:24.250Z,57.51
2023-03-24T02:48:34.245Z,57.86
2023-03-24T02:51:06.061Z,57.86
2023-03-24T02:54:03.889Z,57.77
2023-03-24T02:56:37.712Z,57.93
2023-03-24T02:59:41.608Z,57.90
2023-03-24T03:02:30.869Z,58.03
2023-03-24T03:05:14.027Z,58.20
2023-03-24T03:07:42.499Z,58.19
2023-03-24T03:10:13.758Z,58.25
2023-03-24T03:12:43.001Z,58.27
2023-03-24T03:15:14.482Z,58.20
2023-03-24T03:17:48.952Z,58.36
2023-03-24T03:20:25.109Z,58.57
2023-03-24T03:22:59.944Z,58.51
2023-03-24T03:25:30.700Z,58.59
2023-03-24T03:28:00.566Z,58.35
2023-03-24T03:30:34.013Z,58.32
2023-03-24T03:33:06.191Z,58.35
2023-03-24T03:35:43.856Z,58.40
2023-03-24T03:38:22.694Z,58.42
2023-03-24T03:40:59.583Z,58.40
2023-03-24T03:43:33.033Z,58.26
2023-03-24T03:46:06.588Z,58.39
2023-03-24T03:48:37.315Z,58.36
2023-03-24T03:51:14.596Z,58.70
2023-03-24T03:53:58.387Z,58.48
2023-03-24T03:56:28.710Z,58.67
2023-03-24T03:59:26.027Z,58.54
2023-03-24T04:01:54.664Z,58.61
2023-03-24T04:04:53.200Z,58.45
2023-03-24T04:08:11.020Z,58.69
2023-03-24T04:12:00.109Z,58.70
2023-03-24T04:15:41.232Z,58.79
2023-03-24T04:18:41.805Z,58.97
2023-03-24T04:21:20.064Z,58.93
2023-03-24T04:24:06.380Z,58.94
2023-03-24T04:27:03.051Z,58.93
2023-03-24T04:29:53.319Z,58.98
2023-03-24T04:32:30.562Z,58.98
2023-03-24T04:35:01.998Z,59.05
2023-03-24T04:38:13.294Z,59.15
2023-03-24T04:40:42.219Z,59.11
2023-03-24T04:43:14.049Z,59.03
2023-03-24T04:45:42.289Z,59.17
2023-03-24T04:48:49.828Z,59.23
2023-03-24T04:51:51.927Z,59.29
2023-03-24T04:54:23.959Z,59.42
2023-03-24T04:56:55.353Z,59.48
2023-03-24T04:59:32.510Z,59.45
2023-03-24T05:02:02.505Z,59.42
2023-03-24T05:04:37.378Z,59.31
2023-03-24T05:07:12.379Z,59.38
2023-03-24T05:09:40.827Z,59.25
2023-03-24T05:12:09.057Z,59.43
2023-03-24T05:14:52.123Z,59.46
2023-03-24T05:17:20.456Z,59.47
2023-03-24T05:19:48.496Z,59.45
2023-03-24T05:22:17.252Z,59.75
2023-03-24T05:24:45.349Z,59.67
2023-03-24T05:27:14.013Z,59.64
2023-03-24T05:29:42.309Z,59.86
2023-03-24T05:32:15.989Z,59.90
2023-03-24T05:34:45.703Z,60.00
2023-03-24T05:37:17.824Z,60.03
2023-03-24T05:39:53.275Z,60.13
2023-03-24T05:42:44.845Z,59.74
2023-03-24T05:45:13.780Z,59.85
2023-03-24T05:47:43.434Z,60.02
2023-03-24T05:50:11.775Z,59.75
2023-03-24T05:52:42.560Z,59.85
2023-03-24T05:55:31.153Z,59.78
2023-03-24T05:58:08.731Z,59.70
2023-03-24T06:00:43.435Z,59.66
2023-03-24T06:03:17.617Z,59.60
2023-03-24T06:05:52.805Z,59.61
2023-03-24T06:08:21.622Z,59.51
2023-03-24T06:10:56.164Z,59.43
2023-03-24T06:13:24.402Z,59.20
2023-03-24T06:16:02.193Z,58.96
2023-03-24T06:18:42.902Z,58.85
2023-03-24T06:21:21.977Z,58.44
2023-03-24T06:23:53.785Z,58.35
2023-03-24T06:26:30.881Z,58.04
2023-03-24T06:29:00.675Z,57.52
2023-03-24T06:31:32.839Z,57.17
2023-03-24T06:34:02.671Z,56.93
2023-03-24T06:36:31.130Z,56.61
2023-03-24T06:39:02.425Z,56.36
2023-03-24T06:41:31.616Z,56.36
2023-03-24T06:44:02.035Z,56.27
2023-03-24T06:46:30.849Z,56.19
2023-03-24T06:48:59.324Z,56.14
2023-03-24T06:51:27.595Z,55.95
2023-03-24T06:53:58.738Z,55.60
2023-03-24T06:56:28.497Z,55.55
2023-03-24T06:58:59.806Z,55.74
2023-03-24T07:01:38.625Z,55.68
2023-03-24T07:04:25.882Z,55.84
2023-03-24T07:07:27.954Z,56.05
2023-03-24T07:10:06.444Z,56.05
2023-03-24T07:12:35.531Z,56.18
2023-03-24T07:15:04.849Z,56.35
2023-03-24T07:17:39.087Z,56.54
2023-03-24T07:20:16.457Z,56.63
2023-03-24T07:23:05.817Z,56.81
2023-03-24T07:25:44.985Z,56.96
2023-03-24T07:28:41.951Z,56.99
2023-03-24T07:31:12.895Z,57.25
2023-03-24T07:33:42.283Z,57.44
2023-03-24T07:36:10.901Z,57.57
2023-03-24T07:38:41.793Z,57.68
2023-03-24T07:41:12.775Z,57.68
2023-03-24T07:43:44.067Z,57.70
2023-03-24T07:46:26.124Z,57.77
2023-03-24T07:48:57.060Z,57.87
2023-03-24T07:51:27.880Z,57.88
2023-03-24T07:54:02.889Z,57.93
2023-03-24T07:56:40.011Z,58.07
2023-03-24T07:59:09.875Z,58.10
2023-03-24T08:01:57.693Z,58.23
2023-03-24T08:04:39.596Z,58.28
2023-03-24T08:07:19.072Z,58.28
2023-03-24T08:09:47.686Z,58.36
2023-03-24T08:12:20.503Z,58.48
2023-03-24T08:14:49.234Z,58.63
2023-03-24T08:17:17.458Z,58.56
2023-03-24T08:19:59.047Z,58.51
2023-03-24T08:22:31.187Z,58.45
2023-03-24T08:24:59.633Z,58.44
2023-03-24T08:27:29.200Z,58.41
2023-03-24T08:30:23.995Z,58.37
2023-03-24T08:33:00.190Z,58.30
2023-03-24T08:35:32.734Z,58.16
2023-03-24T08:38:01.654Z,58.14
2023-03-24T08:40:32.779Z,57.95
2023-03-24T08:43:03.371Z,57.71
2023-03-24T08:45:32.378Z,57.73
2023-03-24T08:48:02.115Z,57.78
2023-03-24T08:50:34.640Z,57.71
2023-03-24T08:53:04.309Z,57.68
2023-03-24T08:55:33.056Z,57.73
2023-03-24T08:58:02.054Z,57.65
2023-03-24T09:00:30.662Z,57.58
2023-03-24T09:03:09.642Z,57.62
2023-03-24T09:05:44.424Z,57.61
2023-03-24T09:08:14.448Z,57.62
2023-03-24T09:10:43.008Z,57.42
2023-03-24T09:13:14.332Z,57.22
2023-03-24T09:15:48.974Z,57.01
2023-03-24T09:18:18.253Z,56.74
2023-03-24T09:20:46.893Z,56.86
2023-03-24T09:23:16.311Z,56.79
2023-03-24T09:25:52.553Z,56.48
2023-03-24T09:28:22.013Z,56.13
2023-03-24T09:30:51.108Z,56.12
2023-03-24T09:33:24.290Z,55.86
2023-03-24T09:36:00.385Z,55.49
2023-03-24T09:38:31.563Z,55.11
2023-03-24T09:41:04.069Z,55.21
2023-03-24T09:43:40.045Z,55.26
2023-03-24T09:46:18.741Z,55.19
2023-03-24T09:48:51.419Z,55.03
2023-03-24T09:51:25.432Z,54.62
2023-03-24T09:54:22.742Z,54.41
2023-03-24T09:56:51.858Z,54.29
2023-03-24T09:59:32.206Z,54.17
2023-03-24T10:02:00.845Z,54.02
2023-03-24T10:04:32.215Z,53.91
2023-03-24T10:07:23.220Z,53.61
2023-03-24T10:09:59.587Z,53.43
2023-03-24T10:12:29.976Z,53.18
2023-03-24T10:15:27.210Z,53.12
2023-03-24T10:18:19.390Z,52.97
2023-03-24T10:21:03.707Z,52.84
2023-03-24T10:23:51.558Z,52.78
2023-03-24T10:26:51.091Z,52.67
2023-03-24T10:29:39.759Z,52.30
2023-03-24T10:32:22.567Z,51.84
2023-03-24T10:34:59.662Z,51.77
2023-03-24T10:37:29.883Z,51.41
2023-03-24T10:39:59.175Z,51.14
2023-03-24T10:42:30.914Z,50.59
2023-03-24T10:45:01.062Z,50.23
2023-03-24T10:47:32.957Z,49.89
2023-03-24T10:50:12.410Z,49.41
2023-03-24T10:52:47.480Z,49.31
2023-03-24T10:55:19.325Z,49.06
2023-03-24T10:57:55.710Z,48.85
2023-03-24T11:00:31.833Z,48.53
2023-03-24T11:03:01.964Z,48.25
2023-03-24T11:05:37.530Z,47.56
2023-03-24T11:08:32.814Z,47.13
2023-03-24T11:11:24.011Z,46.81
2023-03-24T11:13:57.748Z,46.13
2023-03-24T11:16:31.544Z,45.88
2023-03-24T11:19:07.819Z,45.50
2023-03-24T11:21:36.767Z,45.32
2023-03-24T11:24:15.888Z,45.21
2023-03-24T11:26:54.499Z,45.12
2023-03-24T11:29:25.822Z,44.50
2023-03-24T11:31:58.631Z,44.31
2023-03-24T11:34:38.806Z,44.20
2023-03-24T11:37:14.657Z,44.04
2023-03-24T11:39:44.735Z,43.97
2023-03-24T11:42:13.006Z,43.89
2023-03-24T11:44:47.157Z,43.55
2023-03-24T11:47:21.740Z,43.52
2023-03-24T11:50:11.501Z,43.56
2023-03-24T11:52:43.650Z,43.56
2023-03-24T11:55:19.709Z,43.49
2023-03-24T11:58:05.058Z,43.42
2023-03-24T12:01:04.443Z,43.37
2023-03-24T12:03:48.921Z,43.30
2023-03-24T12:06:40.359Z,43.10
2023-03-24T12:09:32.118Z,43.33
2023-03-24T12:12:18.388Z,43.10
2023-03-24T12:14:49.744Z,42.98
2023-03-24T12:17:24.363Z,42.98
2023-03-24T12:19:57.928Z,42.81
2023-03-24T12:22:50.063Z,42.51
2023-03-24T12:25:30.659Z,42.34
2023-03-24T12:28:06.802Z,42.33
2023-03-24T12:30:54.067Z,41.98
2023-03-24T12:33:45.048Z,41.82
2023-03-24T12:36:18.832Z,41.74
2023-03-24T12:39:13.138Z,41.53
2023-03-24T12:42:00.422Z,41.42
2023-03-24T12:44:56.543Z,41.37
2023-03-24T12:47:34.230Z,41.23
2023-03-24T12:50:28.709Z,41.23
2023-03-24T12:53:27.807Z,41.24
2023-03-24T12:56:09.798Z,41.42
2023-03-24T12:59:01.046Z,41.26
2023-03-24T13:01:40.634Z,41.06
2023-03-24T13:04:16.308Z,41.04
2023-03-24T13:07:06.952Z,41.15
2023-03-24T13:09:49.625Z,41.36
2023-03-24T13:12:23.916Z,41.44
2023-03-24T13:15:14.252Z,41.49
2023-03-24T13:17:57.059Z,41.66
2023-03-24T13:20:33.608Z,41.54
2023-03-24T13:23:19.301Z,41.39
2023-03-24T13:25:52.910Z,41.47
2023-03-24T13:28:24.978Z,41.32
2023-03-24T13:30:54.306Z,41.24
2023-03-24T13:33:28.769Z,41.17
2023-03-24T13:36:15.056Z,40.92
2023-03-24T13:38:49.591Z,40.85
2023-03-24T13:41:20.020Z,40.54
2023-03-24T13:43:58.046Z,40.21
2023-03-24T13:46:26.555Z,40.08
2023-03-24T13:48:56.015Z,39.80
2023-03-24T13:51:32.378Z,39.90
2023-03-24T13:54:07.116Z,39.85
2023-03-24T13:56:37.865Z,39.90
2023-03-24T13:59:28.704Z,40.03
2023-03-24T14:02:29.406Z,40.08
2023-03-24T14:05:12.358Z,40.22
2023-03-24T14:07:41.028Z,40.24
2023-03-24T14:10:16.208Z,40.20
2023-03-24T14:12:58.229Z,40.09
2023-03-24T14:15:30.223Z,40.06
2023-03-24T14:18:25.660Z,40.08
2023-03-24T14:21:08.914Z,40.17
2023-03-24T14:23:51.849Z,40.17
2023-03-24T14:26:21.178Z,40.31
2023-03-24T14:28:50.603Z,40.50
2023-03-24T14:31:29.209Z,40.73
2023-03-24T14:34:11.003Z,40.83
2023-03-24T14:36:41.016Z,40.63
2023-03-24T14:39:29.926Z,40.54
2023-03-24T14:41:59.384Z,40.38
2023-03-24T14:44:52.687Z,40.30
2023-03-24T14:47:31.154Z,40.38
2023-03-24T14:50:01.631Z,40.61
2023-03-24T14:52:40.616Z,40.61
2023-03-24T14:55:13.195Z,40.73
2023-03-24T14:57:44.546Z,40.94
2023-03-24T15:00:21.622Z,41.13
2023-03-24T15:02:51.541Z,41.34
2023-03-24T15:05:31.194Z,41.56
2023-03-24T15:08:18.484Z,41.71
2023-03-24T15:11:04.088Z,41.78
2023-03-24T15:13:41.999Z,41.70
2023-03-24T15:16:10.499Z,41.93
2023-03-24T15:19:01.323Z,41.83
2023-03-24T15:21:39.878Z,42.05
2023-03-24T15:24:38.213Z,42.24
2023-03-24T15:27:09.042Z,42.52
2023-03-24T15:29:38.975Z,42.69
2023-03-24T15:32:07.623Z,42.72
2023-03-24T15:34:41.084Z,42.65
2023-03-24T15:37:33.158Z,42.71
2023-03-24T15:40:15.339Z,42.69
2023-03-24T15:42:44.670Z,42.67
2023-03-24T15:45:55.292Z,42.49
2023-03-24T15:48:33.588Z,42.66
2023-03-24T15:51:11.863Z,42.59
2023-03-24T15:53:49.210Z,42.61
2023-03-24T15:56:26.141Z,42.75
2023-03-24T15:59:11.876Z,42.96
2023-03-24T16:01:45.157Z,43.01
2023-03-24T16:04:15.936Z,43.10
2023-03-24T16:06:49.432Z,43.29
2023-03-24T16:09:22.392Z,43.32
2023-03-24T16:11:50.738Z,43.43
2023-03-24T16:14:25.840Z,43.57
2023-03-24T16:16:57.759Z,43.66
2023-03-24T16:19:26.328Z,43.65
2023-03-24T16:21:55.007Z,43.89
2023-03-24T16:24:23.660Z,43.94
2023-03-24T16:26:52.492Z,44.22
2023-03-24T16:29:25.875Z,44.31
2023-03-24T16:31:56.334Z,44.48
2023-03-24T16:34:24.848Z,44.73
2023-03-24T16:36:53.750Z,45.01
2023-03-24T16:39:26.880Z,44.97
2023-03-24T16:41:55.986Z,45.08
2023-03-24T16:44:24.599Z,45.21
2023-03-24T16:46:53.996Z,45.29
2023-03-24T16:49:24.837Z,45.38
2023-03-24T16:51:54.031Z,45.81
2023-03-24T16:54:25.562Z,46.30
2023-03-24T16:56:54.720Z,46.28
2023-03-24T16:59:23.687Z,45.90
2023-03-24T17:01:56.445Z,45.71
2023-03-24T17:04:27.488Z,45.61
2023-03-24T17:06:57.439Z,45.47
2023-03-24T17:09:30.864Z,45.51
2023-03-24T17:12:00.694Z,45.61
2023-03-24T17:14:34.138Z,45.77
2023-03-24T17:17:04.578Z,46.73
2023-03-24T17:19:34.884Z,47.63
2023-03-24T17:22:06.668Z,47.96
2023-03-24T17:24:38.191Z,47.79
2023-03-24T17:27:11.987Z,47.56
2023-03-24T17:29:40.744Z,48.05
2023-03-24T17:32:09.238Z,47.79
2023-03-24T17:34:47.831Z,47.53
2023-03-24T17:37:16.978Z,47.64
2023-03-24T17:39:45.184Z,48.73
2023-03-24T17:42:14.793Z,49.61
2023-03-24T17:44:43.968Z,50.15
2023-03-24T17:47:12.838Z,50.34
2023-03-24T17:50:02.095Z,50.98
2023-03-24T17:52:41.075Z,51.31
2023-03-24T17:55:10.450Z,51.26
2023-03-24T17:57:38.948Z,51.26
2023-03-24T18:00:12.249Z,51.26
2023-03-24T18:02:45.177Z,51.25
2023-03-24T18:05:16.094Z,51.01
2023-03-24T18:07:47.856Z,50.83
2023-03-24T18:10:17.433Z,50.73
2023-03-24T18:12:47.371Z,50.75
2023-03-24T18:15:16.611Z,50.65
2023-03-24T18:17:45.553Z,50.78
2023-03-24T18:20:16.428Z,50.89
2023-03-24T18:22:46.089Z,50.75
2023-03-24T18:25:14.352Z,50.93
2023-03-24T18:27:46.204Z,51.42
2023-03-24T18:30:15.054Z,51.83
2023-03-24T18:32:44.038Z,51.81
2023-03-24T18:35:16.758Z,52.26
2023-03-24T18:37:45.730Z,52.54
2023-03-24T18:40:16.737Z,52.50
2023-03-24T18:43:11.351Z,52.55
2023-03-24T18:45:41.140Z,52.66
2023-03-24T18:48:13.653Z,52.14
2023-03-24T18:50:43.897Z,51.99
2023-03-24T18:53:16.523Z,51.78
2023-03-24T18:55:50.330Z,52.63
2023-03-24T18:58:19.048Z,53.28
2023-03-24T19:00:48.826Z,53.55
2023-03-24T19:03:17.553Z,53.68
2023-03-24T19:05:47.922Z,53.90
2023-03-24T19:08:17.766Z,53.81
2023-03-24T19:10:48.381Z,54.01
2023-03-24T19:13:18.333Z,54.20
2023-03-24T19:15:47.721Z,54.45
2023-03-24T19:18:16.596Z,54.50
2023-03-24T19:20:45.421Z,54.36
2023-03-24T19:23:16.212Z,54.42
2023-03-24T19:25:44.620Z,54.33
2023-03-24T19:28:14.940Z,54.50
2023-03-24T19:30:43.948Z,54.55
2023-03-24T19:33:13.425Z,54.41
2023-03-24T19:35:41.842Z,54.36
2023-03-24T19:38:10.597Z,54.32
2023-03-24T19:40:45.180Z,54.35
2023-03-24T19:43:13.781Z,54.70
2023-03-24T19:45:43.110Z,54.74
2023-03-24T19:48:12.608Z,54.71
2023-03-24T19:50:40.832Z,54.75
2023-03-24T19:53:10.104Z,54.90
2023-03-24T19:55:38.548Z,55.21
2023-03-24T19:58:07.611Z,55.28
2023-03-24T20:00:37.412Z,55.21
2023-03-24T20:03:06.960Z,55.23
2023-03-24T20:05:38.607Z,55.39
2023-03-24T20:08:07.291Z,55.49
2023-03-24T20:10:37.667Z,55.59
2023-03-24T20:13:08.344Z,55.57
2023-03-24T20:15:36.860Z,55.65
2023-03-24T20:18:05.578Z,55.72
2023-03-24T20:20:33.772Z,55.91
2023-03-24T20:23:02.200Z,55.98
2023-03-24T20:25:30.969Z,56.12
2023-03-24T20:27:59.471Z,56.30
2023-03-24T20:30:30.274Z,56.34
2023-03-24T20:32:59.909Z,56.33
2023-03-24T20:35:29.612Z,56.38
2023-03-24T20:37:58.100Z,56.38
2023-03-24T20:40:29.378Z,56.39
2023-03-24T20:42:57.666Z,56.53
2023-03-24T20:45:26.890Z,56.55
2023-03-24T20:47:57.012Z,56.67
2023-03-24T20:50:25.395Z,56.65
2023-03-24T20:52:54.698Z,56.70
2023-03-24T20:55:42.983Z,56.82
2023-03-24T20:58:12.805Z,56.89
2023-03-24T21:00:46.288Z,57.01
2023-03-24T21:03:15.772Z,57.00
2023-03-24T21:05:45.751Z,57.04
2023-03-24T21:08:14.585Z,57.05
2023-03-24T21:10:50.958Z,57.06
2023-03-24T21:13:21.630Z,57.20
2023-03-24T21:15:50.458Z,57.23
2023-03-24T21:18:25.171Z,57.28
2023-03-24T21:20:57.075Z,57.38
2023-03-24T21:23:25.580Z,57.50
2023-03-24T21:25:59.076Z,57.61
2023-03-24T21:28:30.505Z,57.75
2023-03-24T21:31:05.047Z,57.86
2023-03-24T21:33:33.903Z,58.11
2023-03-24T21:36:02.186Z,58.12
2023-03-24T21:38:32.979Z,58.28
2023-03-24T21:41:02.243Z,58.18
2023-03-24T21:43:30.531Z,58.29
2023-03-24T21:45:59.080Z,58.26
2023-03-24T21:48:28.371Z,58.29
2023-03-24T21:50:57.715Z,58.30
2023-03-24T21:53:26.347Z,58.34
2023-03-24T21:56:05.108Z,58.38
2023-03-24T21:58:33.668Z,58.44
2023-03-24T22:01:04.864Z,58.47
2023-03-24T22:03:34.682Z,58.58
2023-03-24T22:06:04.988Z,58.59
2023-03-24T22:08:35.086Z,58.75
2023-03-24T22:11:04.497Z,58.81
2023-03-24T22:13:35.039Z,59.04
2023-03-24T22:16:04.135Z,59.18
2023-03-24T22:18:33.207Z,59.39
2023-03-24T22:21:07.728Z,59.66
2023-03-24T22:23:39.284Z,59.89
2023-03-24T22:26:13.014Z,59.95
2023-03-24T22:28:43.016Z,60.05
2023-03-24T22:31:13.363Z,60.07
2023-03-24T22:33:41.640Z,59.99
2023-03-24T22:36:10.497Z,59.99
2023-03-24T22:38:39.213Z,59.90
2023-03-24T22:41:12.170Z,59.90
2023-03-24T22:43:42.283Z,59.76
2023-03-24T22:46:11.055Z,59.77
2023-03-24T22:48:40.544Z,59.64
2023-03-24T22:51:09.547Z,59.67
2023-03-24T22:53:42.749Z,59.56
2023-03-24T22:56:12.148Z,59.49
2023-03-24T22:58:40.590Z,59.48
2023-03-24T23:01:10.640Z,59.30
2023-03-24T23:03:39.117Z,59.31
2023-03-24T23:06:15.951Z,59.32
2023-03-24T23:08:45.688Z,59.31
2023-03-24T23:11:13.841Z,59.36
2023-03-24T23:13:53.344Z,59.33
2023-03-24T23:16:21.620Z,59.33
2023-03-24T23:18:52.390Z,59.31
2023-03-24T23:21:20.723Z,59.33
2023-03-24T23:23:48.905Z,59.38
2023-03-24T23:26:26.292Z,59.38
2023-03-24T23:28:57.087Z,59.33
2023-03-24T23:31:26.770Z,59.43
2023-03-24T23:33:56.569Z,59.40
2023-03-24T23:36:26.486Z,59.44
2023-03-24T23:38:54.928Z,59.47
2023-03-24T23:41:24.622Z,59.43
2023-03-24T23:43:53.203Z,59.42
2023-03-24T23:46:24.118Z,59.41
2023-03-24T23:48:53.052Z,59.36
2023-03-24T23:51:24.813Z,59.34
2023-03-24T23:53:53.050Z,59.30
2023-03-24T23:56:22.970Z,59.35
2023-03-24T23:58:52.402Z,59.28
